Terminal Aerodrome Forecast
Issued by NWS Huntsville, AL

Home | Current Version | Previous Version | Text Only | Print | Product List | Glossary On
Versions: 1 2 3 4 5 6 7 8 9 10 11 12 13 14 15 16 17 18 19 20 21 22 23 24 25 26 27 28
000
FTUS44 KHUN 261727
TAFMSL
TAF
KMSL 261727Z 2618/2718 25010G20KT P6SM SCT025 BKN050
     FM262100 29015G25KT 5SM -SHRA BR SCT009 OVC015
     FM270600 35010KT P6SM OVC009
     FM271100 35010KT P6SM OVC015
     FM271500 35010KT P6SM BKN030=

USA.gov is the U.S. government's official web portal to all federal, state and local government web resources and services.